Time;durP1;ratioP1;P1;durP2;ratioP2;P2;SDS_P1;SDS_P2;PMS_P1;PMS_P2;Temp;Humidity;BMP_temperature;BMP_pressure;BME280_temperature;BME280_humidity;BME280_pressure;Samples;Min_cycle;Max_cycle;Signal;HPM_P1;HPM_P2
2021/04/13 00:00:23;;;;;;;4.40;3.08;;;24.10;37.80;;;;;;5080658;28;20024;-57
2021/04/13 00:02:51;;;;;;;4.32;3.00;;;24.10;37.90;;;;;;5064819;28;20056;-57
2021/04/13 00:05:22;;;;;;;4.25;2.80;;;24.10;37.80;;;;;;5062263;28;20085;-55
2021/04/13 00:07:49;;;;;;;4.30;3.13;;;24.00;37.80;;;;;;5094797;28;20047;-56
2021/04/13 00:10:23;;;;;;;4.20;2.80;;;24.00;37.80;;;;;;5081037;28;20134;-58
2021/04/13 00:12:51;;;;;;;4.53;3.20;;;24.00;37.80;;;;;;5082534;28;20509;-56
2021/04/13 00:15:25;;;;;;;4.57;3.00;;;24.00;37.80;;;;;;5080646;28;20324;-60
2021/04/13 00:17:51;;;;;;;4.63;3.10;;;24.00;37.80;;;;;;5088997;28;20105;-58
2021/04/13 00:20:27;;;;;;;3.50;2.70;;;24.00;37.80;;;;;;5062482;28;20131;-58
2021/04/13 00:22:53;;;;;;;3.95;2.65;;;24.00;37.90;;;;;;5074213;28;20339;-56
2021/04/13 00:25:35;;;;;;;4.28;2.83;;;24.00;37.90;;;;;;5071963;28;20028;-57
2021/04/13 00:28:01;;;;;;;4.60;3.05;;;24.00;37.90;;;;;;5080721;28;20032;-58
2021/04/13 00:30:38;;;;;;;4.03;2.88;;;24.00;37.90;;;;;;5079179;28;20511;-59
2021/04/13 00:33:04;;;;;;;4.63;2.90;;;24.00;37.90;;;;;;5079152;28;20183;-55
2021/04/13 00:35:35;;;;;;;4.43;2.90;;;23.90;37.80;;;;;;5078786;28;20418;-59
2021/04/13 00:38:13;;;;;;;3.60;2.70;;;23.90;37.80;;;;;;5079070;28;20112;-57
2021/04/13 00:40:39;;;;;;;4.53;2.95;;;23.90;37.80;;;;;;5079070;28;20024;-54
2021/04/13 00:43:06;;;;;;;4.45;2.90;;;23.90;37.80;;;;;;5079823;28;20327;-57
2021/04/13 00:45:36;;;;;;;4.28;2.83;;;23.90;37.80;;;;;;5077565;28;20247;-59
2021/04/13 00:48:04;;;;;;;3.60;2.42;;;23.90;37.80;;;;;;5080841;28;20063;-56
2021/04/13 00:50:40;;;;;;;3.63;2.28;;;23.90;37.80;;;;;;5082758;28;20024;-58
2021/04/13 00:53:11;;;;;;;3.75;2.67;;;23.90;37.80;;;;;;5070871;28;20046;-55
2021/04/13 00:55:46;;;;;;;4.50;2.60;;;23.90;37.80;;;;;;5073247;28;20063;-58
2021/04/13 00:58:21;;;;;;;4.13;2.80;;;23.90;37.80;;;;;;5082114;28;20359;-55
2021/04/13 01:01:12;;;;;;;4.18;3.05;;;23.90;38.40;;;;;;5070733;28;20109;-58
2021/04/13 01:03:50;;;;;;;3.88;2.67;;;23.80;37.80;;;;;;5074614;28;20048;-54
2021/04/13 01:06:27;;;;;;;3.90;2.72;;;23.90;37.80;;;;;;5081453;28;20024;-59
2021/04/13 01:09:11;;;;;;;4.60;3.00;;;23.90;37.90;;;;;;5080795;28;20033;-59
2021/04/13 01:11:54;;;;;;;4.50;2.85;;;23.90;37.80;;;;;;5083436;28;20028;-59
2021/04/13 01:14:21;;;;;;;3.83;2.60;;;23.90;37.80;;;;;;5076384;28;20041;-57
2021/04/13 01:16:51;;;;;;;5.05;2.88;;;23.90;37.80;;;;;;5083807;28;20031;-55
2021/04/13 01:19:53;;;;;;;4.47;2.60;;;23.80;37.80;;;;;;5076630;28;20486;-57
2021/04/13 01:22:35;;;;;;;3.85;2.40;;;23.80;37.80;;;;;;5083324;28;20028;-59
2021/04/13 01:25:35;;;;;;;3.67;2.60;;;23.80;37.80;;;;;;5083034;28;20047;-58
2021/04/13 01:28:07;;;;;;;4.20;2.63;;;23.80;37.80;;;;;;5079933;28;20055;-58
2021/04/13 01:30:38;;;;;;;3.25;2.28;;;23.80;37.80;;;;;;5081971;28;20048;-54
2021/04/13 01:33:27;;;;;;;3.30;2.28;;;23.80;37.80;;;;;;5083695;28;20070;-55
2021/04/13 01:35:56;;;;;;;3.25;2.20;;;23.80;37.80;;;;;;5082672;28;20035;-56
2021/04/13 01:43:46;;;;;;;4.32;2.45;;;23.70;37.70;;;;;;5080661;28;20543;-58
2021/04/13 01:46:12;;;;;;;3.80;2.50;;;23.80;37.80;;;;;;5081913;28;20044;-56
2021/04/13 01:48:40;;;;;;;3.15;2.35;;;23.80;37.80;;;;;;5079928;28;20136;-58
2021/04/13 01:51:08;;;;;;;4.00;2.30;;;23.70;37.80;;;;;;5079977;28;20370;-57
2021/04/13 01:53:41;;;;;;;3.20;2.13;;;23.70;37.80;;;;;;5080829;28;20036;-59
2021/04/13 01:56:12;;;;;;;3.20;2.28;;;23.70;37.80;;;;;;5083572;28;20028;-58
2021/04/13 01:58:40;;;;;;;3.42;2.15;;;23.70;37.80;;;;;;5081377;28;20036;-57
2021/04/13 02:01:19;;;;;;;3.10;2.25;;;23.70;37.80;;;;;;5076208;28;20038;-57
2021/04/13 02:03:56;;;;;;;4.00;2.08;;;23.70;38.40;;;;;;5082765;28;20646;-56
2021/04/13 02:06:26;;;;;;;3.30;2.20;;;23.70;37.80;;;;;;5091522;28;20511;-56
2021/04/13 02:09:01;;;;;;;3.03;2.03;;;23.80;37.90;;;;;;5089008;28;20117;-54
2021/04/13 02:11:35;;;;;;;3.20;2.10;;;23.70;37.80;;;;;;5074254;28;20051;-56
2021/04/13 02:14:03;;;;;;;2.90;2.17;;;23.70;37.90;;;;;;5080077;28;20103;-58
2021/04/13 02:16:45;;;;;;;3.17;2.00;;;23.70;37.90;;;;;;5067365;28;20028;-59
2021/04/13 02:19:12;;;;;;;3.72;2.22;;;23.70;37.80;;;;;;5073529;28;20032;-55
2021/04/13 02:21:47;;;;;;;3.10;2.10;;;23.70;37.80;;;;;;5071003;28;20166;-57
2021/04/13 02:24:39;;;;;;;3.15;2.30;;;23.70;37.80;;;;;;5061296;28;20051;-56
2021/04/13 02:27:18;;;;;;;2.70;1.90;;;23.70;37.80;;;;;;5078871;28;20036;-52
2021/04/13 02:29:52;;;;;;;3.17;2.13;;;23.70;37.80;;;;;;5081429;28;20081;-55
2021/04/13 02:32:31;;;;;;;2.72;2.00;;;23.70;37.80;;;;;;5082368;28;20020;-56
2021/04/13 02:35:04;;;;;;;3.05;2.15;;;23.70;37.90;;;;;;5082797;28;20051;-53
2021/04/13 02:37:41;;;;;;;2.97;2.03;;;23.70;37.80;;;;;;5073149;28;20082;-56
2021/04/13 02:40:14;;;;;;;2.50;1.88;;;23.60;37.80;;;;;;5071292;28;20043;-53
2021/04/13 02:42:53;;;;;;;3.22;2.15;;;23.60;37.80;;;;;;5078599;28;20371;-56
2021/04/13 02:45:42;;;;;;;2.67;2.00;;;23.60;37.80;;;;;;5063559;28;20054;-58
2021/04/13 02:48:23;;;;;;;3.65;2.20;;;23.60;37.80;;;;;;5079586;28;20044;-54
2021/04/13 02:50:50;;;;;;;3.15;2.17;;;23.60;37.80;;;;;;5072922;28;20032;-54
2021/04/13 02:53:21;;;;;;;3.22;1.95;;;23.60;37.80;;;;;;5080233;28;20686;-56
2021/04/13 02:55:56;;;;;;;2.50;1.75;;;23.60;37.80;;;;;;5083223;28;20485;-55
2021/04/13 02:58:29;;;;;;;2.47;1.70;;;23.60;37.90;;;;;;5082684;28;20035;-55
2021/04/13 03:00:59;;;;;;;2.53;1.60;;;23.60;38.40;;;;;;5072248;28;20125;-59
2021/04/13 03:03:34;;;;;;;3.30;1.90;;;23.60;37.90;;;;;;5067312;28;20062;-56
2021/04/13 03:06:00;;;;;;;2.67;1.80;;;23.60;37.90;;;;;;5082496;28;20024;-54
2021/04/13 03:08:28;;;;;;;2.63;1.60;;;23.60;37.90;;;;;;5078094;28;20028;-54
2021/04/13 03:10:58;;;;;;;2.65;1.83;;;23.60;37.90;;;;;;5080933;28;20381;-55
2021/04/13 03:13:33;;;;;;;3.03;1.80;;;23.60;37.90;;;;;;5075541;28;20466;-58
2021/04/13 03:16:00;;;;;;;2.90;1.75;;;23.60;37.90;;;;;;5081749;28;20537;-58
2021/04/13 03:18:47;;;;;;;2.28;1.60;;;23.60;38.00;;;;;;5069018;28;20071;-54
2021/04/13 03:21:19;;;;;;;2.38;1.55;;;23.60;37.90;;;;;;5082032;28;20499;-56
2021/04/13 03:23:46;;;;;;;2.47;1.70;;;23.60;38.00;;;;;;5080007;28;20028;-55
2021/04/13 03:26:27;;;;;;;2.28;1.60;;;23.60;38.00;;;;;;5074587;28;20195;-57
2021/04/13 03:28:56;;;;;;;2.67;1.63;;;23.50;37.90;;;;;;5068541;28;20032;-57
2021/04/13 03:31:23;;;;;;;1.90;1.33;;;23.50;37.90;;;;;;5080209;28;20530;-56
2021/04/13 03:33:50;;;;;;;2.83;1.67;;;23.50;37.90;;;;;;5071335;28;20048;-57
2021/04/13 03:36:21;;;;;;;2.35;1.65;;;23.50;37.90;;;;;;5069993;28;20445;-58
2021/04/13 03:38:55;;;;;;;2.60;1.67;;;23.50;37.90;;;;;;5079865;28;20506;-55
2021/04/13 03:41:22;;;;;;;2.50;1.60;;;23.50;38.00;;;;;;5082348;28;20043;-55
2021/04/13 03:43:55;;;;;;;3.33;2.00;;;23.50;38.00;;;;;;5082540;28;20077;-55
2021/04/13 03:46:22;;;;;;;2.05;1.40;;;23.50;37.90;;;;;;5080821;28;20502;-58
2021/04/13 03:48:50;;;;;;;2.17;1.48;;;23.50;38.00;;;;;;5082121;28;20036;-56
2021/04/13 03:51:26;;;;;;;2.40;1.70;;;23.50;38.00;;;;;;5082141;28;20024;-55
2021/04/13 03:53:51;;;;;;;2.78;1.70;;;23.50;38.00;;;;;;5077632;28;20039;-56
2021/04/13 03:56:21;;;;;;;2.22;1.50;;;23.50;38.00;;;;;;5082663;28;20028;-57
2021/04/13 03:58:53;;;;;;;2.30;1.50;;;23.50;38.00;;;;;;5082849;28;20061;-57
2021/04/13 04:01:23;;;;;;;2.80;1.58;;;23.50;38.00;;;;;;5068921;28;20044;-56
2021/04/13 04:04:03;;;;;;;2.08;1.45;;;23.50;38.00;;;;;;5070403;28;20039;-55
2021/04/13 04:06:40;;;;;;;2.05;1.35;;;23.50;38.00;;;;;;5083930;28;20123;-58
2021/04/13 04:09:20;;;;;;;2.47;1.50;;;23.50;38.00;;;;;;5082820;28;20048;-56
2021/04/13 04:11:48;;;;;;;2.20;1.50;;;23.50;38.00;;;;;;5083844;28;20028;-57
2021/04/13 04:14:20;;;;;;;2.60;1.60;;;23.50;38.00;;;;;;5083622;28;20032;-57
2021/04/13 04:16:47;;;;;;;2.58;1.50;;;23.50;38.00;;;;;;5082182;28;20070;-58
2021/04/13 04:19:13;;;;;;;1.90;1.40;;;23.50;38.00;;;;;;5083772;28;20745;-57
2021/04/13 04:21:48;;;;;;;2.00;1.30;;;23.50;38.00;;;;;;5083057;28;20024;-56
2021/04/13 04:24:16;;;;;;;2.28;1.40;;;23.50;38.00;;;;;;5064434;28;20032;-54
2021/04/13 04:26:55;;;;;;;1.80;1.23;;;23.50;38.10;;;;;;5087894;28;20091;-57
2021/04/13 04:29:30;;;;;;;2.10;1.40;;;23.50;38.00;;;;;;5086345;28;20419;-57
2021/04/13 04:32:14;;;;;;;2.17;1.30;;;23.50;38.00;;;;;;5084517;28;20039;-57
2021/04/13 04:34:45;;;;;;;2.20;1.35;;;23.50;38.10;;;;;;5083446;28;20055;-52
2021/04/13 04:37:20;;;;;;;2.42;1.40;;;23.50;38.10;;;;;;5085251;28;20052;-53
2021/04/13 04:39:46;;;;;;;3.35;1.40;;;23.40;38.10;;;;;;5084871;28;20107;-57
2021/04/13 04:42:27;;;;;;;2.25;1.45;;;23.50;38.20;;;;;;5086928;28;20769;-55
2021/04/13 04:45:13;;;;;;;2.65;1.23;;;23.40;38.20;;;;;;5086511;28;20594;-59
2021/04/13 04:47:39;;;;;;;2.10;1.23;;;23.50;38.30;;;;;;5071820;28;20033;-57
2021/04/13 04:50:14;;;;;;;2.35;1.40;;;23.50;38.30;;;;;;5078576;28;20753;-55
2021/04/13 04:52:40;;;;;;;1.85;1.20;;;23.50;38.30;;;;;;5085484;28;20036;-54
2021/04/13 04:55:07;;;;;;;2.35;1.30;;;23.50;38.30;;;;;;5085247;28;20081;-57
2021/04/13 04:57:33;;;;;;;2.08;1.40;;;23.50;38.30;;;;;;5081135;28;20054;-56
2021/04/13 04:59:58;;;;;;;2.30;1.48;;;23.50;38.30;;;;;;5080790;28;20028;-55
2021/04/13 05:02:24;;;;;;;2.08;1.35;;;23.50;38.30;;;;;;5067117;28;20047;-50
2021/04/13 05:04:51;;;;;;;2.22;1.40;;;23.50;38.30;;;;;;5083281;28;20525;-54
2021/04/13 05:07:17;;;;;;;2.08;1.25;;;23.50;38.30;;;;;;5081627;28;20048;-56
2021/04/13 05:09:42;;;;;;;1.92;1.40;;;23.50;38.40;;;;;;5081799;28;20127;-56
2021/04/13 05:12:09;;;;;;;2.15;1.48;;;23.40;38.30;;;;;;5084606;28;20509;-53
2021/04/13 05:14:34;;;;;;;2.90;1.50;;;23.40;38.30;;;;;;5083905;28;20028;-58
2021/04/13 05:17:00;;;;;;;2.58;1.40;;;23.40;38.30;;;;;;5083863;28;20035;-57
2021/04/13 05:19:26;;;;;;;1.73;1.20;;;23.50;38.30;;;;;;5082732;28;20355;-56
2021/04/13 05:21:51;;;;;;;1.70;1.20;;;23.40;38.20;;;;;;5068585;28;20039;-55
2021/04/13 05:24:17;;;;;;;2.25;1.40;;;23.50;38.30;;;;;;5078472;28;20056;-56
2021/04/13 05:26:43;;;;;;;2.65;1.40;;;23.50;38.30;;;;;;5084446;28;20040;-57
2021/04/13 05:29:08;;;;;;;1.75;1.20;;;23.40;38.30;;;;;;5078808;28;20380;-57
2021/04/13 05:31:38;;;;;;;4.10;1.30;;;23.40;38.20;;;;;;5081643;28;20067;-57
2021/04/13 05:34:04;;;;;;;2.28;1.48;;;23.40;38.30;;;;;;5079264;28;20471;-58
2021/04/13 05:36:29;;;;;;;2.42;1.30;;;23.40;38.30;;;;;;5082734;28;20035;-56
2021/04/13 05:38:55;;;;;;;2.47;1.30;;;23.50;38.30;;;;;;5082297;28;20237;-57
2021/04/13 05:41:21;;;;;;;2.90;1.55;;;23.50;38.40;;;;;;5079751;28;20032;-58
2021/04/13 05:43:46;;;;;;;2.25;1.30;;;23.50;38.30;;;;;;5080920;28;20780;-57
2021/04/13 05:46:19;;;;;;;2.10;1.55;;;23.60;38.30;;;;;;5082747;28;20028;-56
2021/04/13 05:48:45;;;;;;;2.30;1.33;;;23.60;38.20;;;;;;5081406;28;20039;-55
2021/04/13 05:51:11;;;;;;;2.00;1.40;;;23.60;38.20;;;;;;5082569;28;20107;-55
2021/04/13 05:53:36;;;;;;;2.30;1.50;;;23.60;38.20;;;;;;5079691;28;20438;-58
2021/04/13 05:56:02;;;;;;;2.83;1.25;;;23.70;38.20;;;;;;5083708;28;20064;-57
2021/04/13 05:58:45;;;;;;;2.10;1.40;;;23.70;38.20;;;;;;5076722;28;20032;-56
2021/04/13 06:01:11;;;;;;;1.98;1.23;;;23.70;38.20;;;;;;5067991;28;20125;-58
2021/04/13 06:03:37;;;;;;;2.13;1.33;;;23.80;38.20;;;;;;5072137;28;20720;-58
2021/04/13 06:06:03;;;;;;;2.40;1.40;;;23.80;38.10;;;;;;5077943;28;20024;-58
2021/04/13 06:08:29;;;;;;;3.15;1.35;;;23.80;38.10;;;;;;5074363;28;20031;-58
2021/04/13 06:10:56;;;;;;;1.80;1.27;;;23.80;38.10;;;;;;5081612;28;20036;-58
2021/04/13 06:13:23;;;;;;;2.08;1.40;;;23.80;38.00;;;;;;5078442;28;22127;-57
2021/04/13 06:15:50;;;;;;;3.08;1.38;;;23.90;38.00;;;;;;5082282;28;20028;-59
2021/04/13 06:18:17;;;;;;;2.80;1.30;;;23.90;38.00;;;;;;5071255;28;20490;-58
2021/04/13 06:20:42;;;;;;;2.28;1.42;;;23.90;37.90;;;;;;5080986;28;20509;-58
2021/04/13 06:23:08;;;;;;;3.00;1.35;;;23.90;37.90;;;;;;5080025;28;20127;-58
2021/04/13 06:25:34;;;;;;;1.95;1.33;;;24.00;37.90;;;;;;5083047;28;20032;-58
2021/04/13 06:28:00;;;;;;;2.25;1.35;;;24.00;37.90;;;;;;5081507;28;20183;-57
2021/04/13 06:30:27;;;;;;;1.90;1.23;;;24.00;37.90;;;;;;5077947;28;20506;-59
2021/04/13 06:32:53;;;;;;;2.08;1.30;;;24.10;37.90;;;;;;5082393;28;20576;-58
2021/04/13 06:35:20;;;;;;;1.90;1.17;;;24.10;37.80;;;;;;5083552;28;20097;-58
2021/04/13 06:37:47;;;;;;;1.90;1.10;;;24.10;37.80;;;;;;5081006;28;20035;-58
2021/04/13 06:40:38;;;;;;;2.65;1.40;;;24.10;37.70;;;;;;5081100;28;20024;-59
2021/04/13 06:43:30;;;;;;;1.77;1.10;;;24.10;37.70;;;;;;5079222;28;20055;-58
2021/04/13 06:46:15;;;;;;;2.47;1.25;;;24.20;37.70;;;;;;5077531;28;20058;-58
2021/04/13 06:48:54;;;;;;;1.95;1.20;;;24.20;37.80;;;;;;5062952;28;20078;-58
2021/04/13 06:51:51;;;;;;;2.22;1.40;;;24.30;37.80;;;;;;5075914;28;20028;-59
2021/04/13 06:54:41;;;;;;;2.38;1.23;;;24.20;37.80;;;;;;5074857;28;20047;-58
2021/04/13 06:57:13;;;;;;;1.63;1.20;;;24.30;37.80;;;;;;5063047;28;20333;-55
2021/04/13 07:00:12;;;;;;;1.77;1.20;;;24.30;37.80;;;;;;5075024;28;20036;-58
2021/04/13 07:03:05;;;;;;;2.00;1.20;;;24.30;37.70;;;;;;5076854;28;20139;-58
2021/04/13 07:05:40;;;;;;;1.73;1.20;;;24.40;37.80;;;;;;5080186;28;20055;-59
2021/04/13 07:08:27;;;;;;;1.90;1.20;;;24.40;37.70;;;;;;5062099;28;20052;-59
2021/04/13 07:11:02;;;;;;;1.83;1.30;;;24.40;37.60;;;;;;5081867;28;20500;-58
2021/04/13 07:13:44;;;;;;;3.88;1.10;;;24.40;37.60;;;;;;5067972;28;20051;-58
2021/04/13 07:16:30;;;;;;;2.05;1.30;;;24.50;37.50;;;;;;5082109;28;20327;-59
2021/04/13 07:19:21;;;;;;;1.98;1.10;;;24.50;37.50;;;;;;5081440;28;20135;-59
2021/04/13 07:22:15;;;;;;;2.80;1.35;;;24.50;37.50;;;;;;5071530;28;20050;-59
2021/04/13 07:25:00;;;;;;;3.00;1.35;;;24.50;37.50;;;;;;5061110;28;20040;-58
2021/04/13 07:27:45;;;;;;;1.48;1.05;;;24.60;37.50;;;;;;5082600;28;20034;-58
2021/04/13 07:30:25;;;;;;;1.98;1.27;;;24.60;37.50;;;;;;5081398;28;20117;-58
2021/04/13 07:33:02;;;;;;;2.05;1.20;;;24.60;37.50;;;;;;5081232;28;20130;-57
2021/04/13 07:35:37;;;;;;;1.95;1.10;;;24.60;37.50;;;;;;5081718;28;20016;-59
2021/04/13 07:38:15;;;;;;;1.50;1.15;;;24.60;37.50;;;;;;5079052;28;20123;-57
2021/04/13 07:40:45;;;;;;;1.83;1.10;;;24.70;37.60;;;;;;5080774;28;20040;-56
2021/04/13 07:43:12;;;;;;;1.52;1.00;;;24.70;37.50;;;;;;5079603;28;20390;-59
2021/04/13 07:46:07;;;;;;;1.75;1.20;;;24.70;37.60;;;;;;5072799;28;20037;-58
2021/04/13 07:49:04;;;;;;;2.10;1.17;;;24.70;37.60;;;;;;5062051;28;20032;-59
2021/04/13 07:51:29;;;;;;;2.40;1.00;;;24.70;37.60;;;;;;5071208;28;20073;-56
2021/04/13 07:54:10;;;;;;;1.35;1.08;;;24.70;37.60;;;;;;5079178;28;20040;-59
2021/04/13 07:56:51;;;;;;;2.35;1.00;;;24.70;37.60;;;;;;5082436;28;20039;-59
2021/04/13 07:59:26;;;;;;;2.10;1.00;;;24.70;37.70;;;;;;5086266;28;20028;-56
2021/04/13 08:01:51;;;;;;;2.70;1.00;;;24.70;37.80;;;;;;5069848;28;20032;-58
2021/04/13 08:04:28;;;;;;;2.20;1.13;;;24.80;37.80;;;;;;5082925;28;20032;-58
2021/04/13 08:07:05;;;;;;;1.88;1.15;;;24.80;37.80;;;;;;5072387;28;20033;-58
2021/04/13 08:09:43;;;;;;;1.45;1.02;;;24.80;37.70;;;;;;5080041;28;20042;-58
2021/04/13 08:12:11;;;;;;;2.33;1.10;;;24.80;37.70;;;;;;5085815;28;20031;-59
2021/04/13 08:14:40;;;;;;;1.85;1.10;;;24.80;37.60;;;;;;5085197;28;20723;-58
2021/04/13 08:17:27;;;;;;;2.70;1.23;;;24.80;37.60;;;;;;5083912;28;20094;-58
2021/04/13 08:20:25;;;;;;;1.67;1.10;;;24.80;37.60;;;;;;5082010;28;20753;-56
2021/04/13 08:22:58;;;;;;;3.15;1.30;;;24.90;37.70;;;;;;5081805;28;20111;-55
2021/04/13 08:25:41;;;;;;;1.85;1.10;;;24.90;37.70;;;;;;5079538;28;20036;-57
2021/04/13 08:28:37;;;;;;;1.90;1.10;;;24.90;37.70;;;;;;5083962;28;20121;-58
2021/04/13 08:34:17;;;;;;;1.60;1.10;;;24.90;37.70;;;;;;5086345;28;20744;-58
2021/04/13 08:37:03;;;;;;;2.33;1.10;;;25.00;37.70;;;;;;5084918;28;20070;-56
2021/04/13 08:39:59;;;;;;;2.15;1.20;;;25.00;37.70;;;;;;5072944;28;20047;-57
2021/04/13 08:42:33;;;;;;;2.33;1.02;;;25.00;37.70;;;;;;5083338;28;20032;-55
2021/04/13 08:45:20;;;;;;;2.03;1.10;;;25.00;37.80;;;;;;5084848;28;20040;-57
2021/04/13 08:47:51;;;;;;;1.80;1.00;;;25.00;37.80;;;;;;5083638;28;20462;-59
2021/04/13 08:50:34;;;;;;;3.25;1.00;;;25.00;37.70;;;;;;5085761;28;20086;-59
2021/04/13 08:53:07;;;;;;;1.70;1.00;;;25.00;37.70;;;;;;5082231;28;20073;-59
2021/04/13 08:55:45;;;;;;;2.13;1.05;;;25.10;37.70;;;;;;5083366;28;20386;-59
2021/04/13 08:58:14;;;;;;;1.30;1.00;;;25.00;38.20;;;;;;5084837;28;20083;-59
2021/04/13 09:00:46;;;;;;;1.38;1.00;;;25.00;37.70;;;;;;5083755;28;20086;-57
2021/04/13 09:03:26;;;;;;;1.25;0.90;;;25.00;37.70;;;;;;5070918;28;20453;-57
2021/04/13 09:06:12;;;;;;;3.55;1.10;;;25.10;37.80;;;;;;5081261;28;20020;-57
2021/04/13 09:09:06;;;;;;;1.83;1.00;;;25.10;37.80;;;;;;5071060;28;20093;-57
2021/04/13 09:11:39;;;;;;;1.52;1.10;;;25.10;37.80;;;;;;5078341;28;20495;-59
2021/04/13 09:14:15;;;;;;;2.13;1.13;;;25.10;37.80;;;;;;5076882;28;20098;-57
2021/04/13 09:16:54;;;;;;;1.13;0.90;;;25.10;37.80;;;;;;5081775;28;20474;-58
2021/04/13 09:19:32;;;;;;;0.93;0.80;;;25.20;38.60;;;;;;5072352;28;20054;-57
2021/04/13 09:22:12;;;;;;;1.40;1.00;;;25.20;37.90;;;;;;5084517;28;20066;-59
2021/04/13 09:24:43;;;;;;;1.90;1.00;;;25.20;37.80;;;;;;5079851;28;20023;-58
2021/04/13 09:27:20;;;;;;;2.53;1.00;;;25.20;37.80;;;;;;5084871;28;20202;-58
2021/04/13 09:29:48;;;;;;;1.30;0.90;;;25.20;38.00;;;;;;5085570;28;20058;-58
2021/04/13 09:32:26;;;;;;;1.55;0.90;;;25.30;38.20;;;;;;5083338;28;20044;-57
2021/04/13 09:35:25;;;;;;;1.50;0.90;;;25.30;38.20;;;;;;5082162;28;20036;-58
2021/04/13 09:38:19;;;;;;;1.45;0.88;;;25.30;38.00;;;;;;5084422;28;20059;-58
2021/04/13 09:41:15;;;;;;;1.40;0.90;;;25.40;38.10;;;;;;5085023;28;20032;-58
2021/04/13 09:43:50;;;;;;;1.60;1.00;;;25.40;38.00;;;;;;5081736;28;20427;-58
2021/04/13 09:46:47;;;;;;;1.42;1.08;;;25.40;38.00;;;;;;5084592;28;20093;-57
2021/04/13 09:49:30;;;;;;;1.25;0.90;;;25.40;38.00;;;;;;5069514;28;20411;-58
2021/04/13 09:52:19;;;;;;;1.33;1.00;;;25.40;38.10;;;;;;5095353;28;20482;-56
2021/04/13 09:55:14;;;;;;;0.93;0.80;;;25.40;38.00;;;;;;5082292;28;20105;-59
2021/04/13 09:58:05;;;;;;;1.63;0.90;;;25.40;38.00;;;;;;5084933;28;20020;-57
2021/04/13 10:00:38;;;;;;;1.45;0.90;;;25.40;38.20;;;;;;5077183;28;20036;-55
2021/04/13 10:03:21;;;;;;;2.08;1.02;;;25.40;38.00;;;;;;5073705;28;20800;-57
2021/04/13 10:05:48;;;;;;;1.42;1.02;;;25.50;38.10;;;;;;5087464;28;20019;-57
2021/04/13 10:08:26;;;;;;;1.63;1.00;;;25.50;38.00;;;;;;5100617;28;20024;-58
2021/04/13 10:10:55;;;;;;;1.40;1.00;;;25.50;38.00;;;;;;5078673;28;20025;-57
2021/04/13 10:13:23;;;;;;;1.25;0.82;;;25.50;38.00;;;;;;5081171;28;20049;-59
2021/04/13 10:16:04;;;;;;;1.50;0.90;;;25.50;38.00;;;;;;5084122;28;20078;-58
2021/04/13 10:19:07;;;;;;;1.83;1.00;;;25.50;38.00;;;;;;5082463;28;20032;-57
2021/04/13 10:22:14;;;;;;;1.38;1.00;;;25.50;38.00;;;;;;5073962;28;20187;-58
2021/04/13 10:24:41;;;;;;;1.38;0.80;;;25.50;37.90;;;;;;5073066;28;20036;-57
2021/04/13 10:27:25;;;;;;;1.58;0.90;;;25.50;37.90;;;;;;5084231;28;20162;-57
2021/04/13 10:30:10;;;;;;;1.38;1.02;;;25.50;37.90;;;;;;5083360;28;20131;-56
2021/04/13 10:33:04;;;;;;;1.35;1.00;;;25.50;37.90;;;;;;5081117;28;20119;-57
2021/04/13 10:36:17;;;;;;;2.00;0.90;;;25.50;37.90;;;;;;5081986;28;20103;-58
2021/04/13 10:39:17;;;;;;;1.20;0.90;;;25.60;37.90;;;;;;5074849;28;20082;-58
2021/04/13 10:42:34;;;;;;;1.52;0.90;;;25.60;37.70;;;;;;5083065;28;20047;-57
2021/04/13 10:45:27;;;;;;;1.48;0.90;;;25.60;37.60;;;;;;5064180;28;20384;-58
2021/04/13 10:48:14;;;;;;;1.70;0.82;;;25.60;37.60;;;;;;5081955;28;20418;-56
2021/04/13 10:50:46;;;;;;;1.60;1.10;;;25.60;37.50;;;;;;5082578;28;20119;-58
2021/04/13 10:53:19;;;;;;;1.35;0.88;;;25.60;34.70;;;;;;5080656;28;20466;-54
2021/04/13 10:55:54;;;;;;;1.63;1.20;;;25.50;34.80;;;;;;5083897;28;20039;-58
2021/04/13 10:58:54;;;;;;;1.15;0.90;;;25.50;34.40;;;;;;5063041;28;20452;-53
2021/04/13 11:01:34;;;;;;;1.63;1.00;;;25.40;31.90;;;;;;5066970;28;20036;-56
2021/04/13 11:04:22;;;;;;;1.45;0.93;;;25.40;33.00;;;;;;5062398;28;20029;-57
2021/04/13 11:06:50;;;;;;;1.98;0.90;;;25.40;33.50;;;;;;5087280;28;20031;-55
2021/04/13 11:09:45;;;;;;;1.43;1.10;;;25.30;33.70;;;;;;5081843;28;20032;-57
2021/04/13 11:12:43;;;;;;;0.90;0.80;;;25.30;33.00;;;;;;5026512;28;20376;-55
2021/04/13 11:15:28;;;;;;;1.43;1.00;;;25.20;32.10;;;;;;5083168;28;20028;-56
2021/04/13 11:18:04;;;;;;;1.80;1.10;;;25.20;32.20;;;;;;5082121;28;20365;-55
2021/04/13 11:20:38;;;;;;;1.65;1.00;;;25.10;32.20;;;;;;5082387;28;20030;-57
2021/04/13 11:23:41;;;;;;;1.58;1.00;;;25.10;32.00;;;;;;5080509;28;20032;-57
2021/04/13 11:26:39;;;;;;;1.17;0.98;;;25.10;32.70;;;;;;5062911;28;20345;-55
2021/04/13 11:29:58;;;;;;;2.03;1.00;;;25.10;32.30;;;;;;5080164;28;20092;-58
2021/04/13 11:33:07;;;;;;;0.80;0.70;;;25.10;32.90;;;;;;5004140;28;20413;-57
2021/04/13 11:36:01;;;;;;;1.63;0.90;;;25.10;34.70;;;;;;5008679;28;20080;-56
2021/04/13 11:38:32;;;;;;;1.52;0.90;;;25.20;34.90;;;;;;5043645;28;20259;-57
2021/04/13 11:41:18;;;;;;;1.15;0.80;;;25.10;34.90;;;;;;5082927;28;20039;-58
2021/04/13 11:44:11;;;;;;;2.22;0.90;;;25.20;34.90;;;;;;5081473;28;20062;-56
2021/04/13 11:47:02;;;;;;;1.00;0.80;;;25.20;34.60;;;;;;5081647;28;20174;-60
2021/04/13 11:49:39;;;;;;;1.83;1.00;;;25.20;34.90;;;;;;5073236;28;20039;-56
2021/04/13 11:52:16;;;;;;;1.52;0.80;;;25.20;34.20;;;;;;5078518;28;20449;-58
2021/04/13 11:54:53;;;;;;;1.98;0.90;;;25.20;34.10;;;;;;5079734;28;20020;-59
2021/04/13 11:57:19;;;;;;;1.52;1.00;;;25.20;33.60;;;;;;5083250;28;20024;-59
2021/04/13 12:00:10;;;;;;;1.48;0.85;;;25.20;33.40;;;;;;5082042;28;20035;-57
2021/04/13 12:02:44;;;;;;;1.08;0.80;;;25.20;33.60;;;;;;5080154;28;20371;-58
2021/04/13 12:05:31;;;;;;;1.35;1.00;;;25.20;34.10;;;;;;5085481;28;20024;-56
2021/04/13 12:07:58;;;;;;;1.70;1.10;;;25.20;34.20;;;;;;5083621;28;20497;-60
2021/04/13 12:10:29;;;;;;;2.10;1.27;;;25.20;34.40;;;;;;5082454;28;20024;-57
2021/04/13 12:12:55;;;;;;;3.92;1.40;;;25.30;34.20;;;;;;5082705;28;20031;-59
2021/04/13 12:15:21;;;;;;;2.28;1.30;;;25.20;34.10;;;;;;5084918;28;20621;-57
2021/04/13 12:17:51;;;;;;;3.58;1.65;;;25.30;34.20;;;;;;5083179;28;20036;-60
2021/04/13 12:20:23;;;;;;;3.17;1.48;;;25.20;33.80;;;;;;5069819;28;20048;-57
2021/04/13 12:22:50;;;;;;;3.53;1.80;;;25.20;33.80;;;;;;5075022;28;20511;-61
2021/04/13 12:25:39;;;;;;;2.58;1.60;;;25.20;34.10;;;;;;5082597;28;20477;-59
2021/04/13 12:28:10;;;;;;;2.70;1.70;;;25.20;33.50;;;;;;5084192;28;20369;-59
2021/04/13 12:30:42;;;;;;;2.85;1.80;;;25.20;33.70;;;;;;5078493;28;20177;-54
2021/04/13 12:33:09;;;;;;;2.67;1.50;;;25.20;33.80;;;;;;5079180;28;20138;-58
2021/04/13 12:35:48;;;;;;;2.72;1.30;;;25.20;33.30;;;;;;5076684;28;20086;-55
2021/04/13 12:38:41;;;;;;;2.63;1.38;;;25.20;33.50;;;;;;5081886;28;20024;-58
2021/04/13 12:41:18;;;;;;;1.73;1.00;;;25.20;33.90;;;;;;5076384;28;20028;-60
2021/04/13 12:43:46;;;;;;;2.08;1.10;;;25.20;33.90;;;;;;5083236;28;20408;-58
2021/04/13 12:46:40;;;;;;;1.65;1.00;;;25.20;33.70;;;;;;5087529;28;20632;-58
2021/04/13 12:49:11;;;;;;;2.55;1.00;;;25.30;34.10;;;;;;5082972;28;20040;-58
2021/04/13 12:52:01;;;;;;;1.90;1.02;;;25.30;34.00;;;;;;5083629;28;20466;-56
2021/04/13 12:54:38;;;;;;;2.70;1.00;;;25.30;34.00;;;;;;5084919;28;20032;-56
2021/04/13 12:57:10;;;;;;;3.38;0.85;;;25.40;34.20;;;;;;5087218;28;20980;-59
2021/04/13 12:59:36;;;;;;;2.47;1.00;;;25.30;34.20;;;;;;5089441;28;20028;-57
2021/04/13 13:02:04;;;;;;;2.47;1.10;;;25.40;33.50;;;;;;5084173;28;20051;-57
2021/04/13 13:04:34;;;;;;;2.25;1.10;;;25.30;33.60;;;;;;5080870;28;20616;-58
2021/04/13 13:07:00;;;;;;;2.30;1.10;;;25.30;33.70;;;;;;5086457;28;20505;-56
2021/04/13 13:09:39;;;;;;;1.60;1.00;;;25.30;33.60;;;;;;5084625;28;20028;-58
2021/04/13 13:12:29;;;;;;;2.58;1.00;;;25.30;33.70;;;;;;5085230;28;20047;-59
2021/04/13 13:15:11;;;;;;;1.92;1.00;;;25.40;33.90;;;;;;5082921;28;20562;-59
2021/04/13 13:17:44;;;;;;;1.92;1.10;;;25.40;33.80;;;;;;5084542;28;20399;-57
2021/04/13 13:20:16;;;;;;;1.50;1.10;;;25.40;33.60;;;;;;5083975;28;20036;-57
2021/04/13 13:22:50;;;;;;;2.83;0.90;;;25.40;33.90;;;;;;5084571;28;20135;-58
2021/04/13 13:25:23;;;;;;;1.85;1.00;;;25.40;33.60;;;;;;5082391;28;20104;-53
2021/04/13 13:27:49;;;;;;;1.15;1.00;;;25.40;33.90;;;;;;5086412;28;20064;-57
2021/04/13 13:30:16;;;;;;;2.65;1.23;;;25.40;33.80;;;;;;5082262;28;20374;-56
2021/04/13 13:32:43;;;;;;;1.63;1.02;;;25.40;33.70;;;;;;5082089;28;20085;-58
2021/04/13 13:35:14;;;;;;;1.38;0.90;;;25.40;33.50;;;;;;5081396;28;20039;-57
2021/04/13 13:37:43;;;;;;;1.40;0.80;;;25.40;33.70;;;;;;5084056;28;20031;-56
2021/04/13 13:40:16;;;;;;;1.50;0.90;;;25.40;33.50;;;;;;5083170;28;20419;-58
2021/04/13 13:42:42;;;;;;;1.90;1.20;;;25.40;33.20;;;;;;5083297;28;20032;-57